Time;durP1;ratioP1;P1;durP2;ratioP2;P2;SDS_P1;SDS_P2;PMS_P1;PMS_P2;Temp;Humidity;BMP_temperature;BMP_pressure;BME280_temperature;BME280_humidity;BME280_pressure;Samples;Min_cycle;Max_cycle;Signal;HPM_P1;HPM_P2
2022/03/28 00:01:56;;;;;;;17.35;11.05;;;;;;;5.38;52.37;101758.44;1717230;82;25051;-78
2022/03/28 00:04:23;;;;;;;20.17;10.90;;;;;;;5.32;52.43;101753.61;1712868;82;20870;-78
2022/03/28 00:06:49;;;;;;;18.12;10.35;;;;;;;5.26;52.48;101753.47;1702101;83;20925;-77
2022/03/28 00:09:15;;;;;;;23.87;10.98;;;;;;;5.21;52.50;101752.48;1711228;82;20948;-77
2022/03/28 00:11:42;;;;;;;20.48;10.15;;;;;;;5.16;52.56;101751.55;1691166;82;20940;-77
2022/03/28 00:14:08;;;;;;;19.80;10.32;;;;;;;5.11;52.60;101743.28;1688652;83;20881;-77
2022/03/28 00:16:35;;;;;;;18.67;10.43;;;;;;;5.05;52.70;101744.00;1703960;83;20862;-78
2022/03/28 00:19:01;;;;;;;21.10;11.30;;;;;;;5.04;52.78;101746.53;1666297;84;20900;-77
2022/03/28 00:21:27;;;;;;;18.40;10.58;;;;;;;4.98;52.78;101737.86;1681924;84;20947;-78
2022/03/28 00:23:54;;;;;;;17.32;11.22;;;;;;;4.95;52.87;101733.06;1637000;86;20973;-78
2022/03/28 00:26:20;;;;;;;16.80;10.40;;;;;;;4.92;52.96;101736.42;1636975;87;20954;-78
2022/03/28 00:28:47;;;;;;;18.95;11.08;;;;;;;4.88;52.97;101725.64;1644532;86;21029;-78
2022/03/28 00:31:14;;;;;;;20.02;10.72;;;;;;;4.86;53.07;101728.99;1640670;85;20902;-78
2022/03/28 00:33:40;;;;;;;20.92;11.53;;;;;;;4.82;53.08;101730.61;1636907;86;20894;-79
2022/03/28 00:36:06;;;;;;;19.27;11.47;;;;;;;4.78;53.13;101727.93;1637118;87;20884;-78
2022/03/28 00:38:32;;;;;;;22.15;12.35;;;;;;;4.74;53.19;101721.86;1637326;86;26686;-78
2022/03/28 00:40:59;;;;;;;20.20;10.68;;;;;;;4.71;53.26;101718.35;1663815;86;20926;-78
2022/03/28 00:43:27;;;;;;;24.60;12.20;;;;;;;4.65;53.31;101714.84;1655550;86;20899;-78
2022/03/28 00:45:53;;;;;;;25.55;12.47;;;;;;;4.62;53.38;101712.20;1664078;85;20962;-78
2022/03/28 00:48:26;;;;;;;24.72;11.80;;;;;;;4.60;53.40;101704.89;1673692;85;20962;-78
2022/03/28 00:50:52;;;;;;;23.60;11.05;;;;;;;4.59;53.51;101712.53;1654625;85;20958;-78
2022/03/28 00:53:19;;;;;;;21.37;11.60;;;;;;;4.56;53.60;101704.77;1659123;85;20925;-78
2022/03/28 00:55:46;;;;;;;22.48;11.28;;;;;;;4.53;53.64;101702.99;1666757;85;20910;-78
2022/03/28 00:58:12;;;;;;;19.77;10.03;;;;;;;4.52;53.66;101698.70;1662639;86;20949;-78
2022/03/28 01:00:38;;;;;;;15.00;9.30;;;;;;;4.53;53.80;101696.59;1659906;86;20965;-78
2022/03/28 01:03:13;;;;;;;20.10;10.10;;;;;;;4.53;53.86;101694.44;1666479;85;21259;-78
2022/03/28 01:05:39;;;;;;;18.20;10.53;;;;;;;4.53;53.88;101685.48;1639919;86;21608;-78
2022/03/28 01:08:05;;;;;;;19.67;11.00;;;;;;;4.52;53.95;101678.63;1639965;86;20918;-78
2022/03/28 01:10:31;;;;;;;18.52;10.95;;;;;;;4.50;54.08;101664.91;1645078;86;21402;-78
2022/03/28 01:13:00;;;;;;;18.73;11.22;;;;;;;4.50;54.13;101666.19;1645564;86;20969;-78
2022/03/28 01:15:27;;;;;;;18.27;10.32;;;;;;;4.50;54.16;101657.23;1642805;85;21336;-78
2022/03/28 01:18:11;;;;;;;20.37;10.48;;;;;;;4.48;54.19;101649.50;1672799;84;20922;-79
2022/03/28 01:20:40;;;;;;;16.67;9.83;;;;;;;4.46;54.28;101642.61;1674053;84;20922;-78
2022/03/28 01:23:08;;;;;;;16.82;10.18;;;;;;;4.46;54.37;101640.05;1689216;84;20902;-78
2022/03/28 01:25:35;;;;;;;16.55;9.53;;;;;;;4.44;54.35;101639.14;1648507;85;20914;-78
2022/03/28 01:28:01;;;;;;;;;;;;;;;4.41;54.42;101639.93;1700009;83;20904;-78
2022/03/28 01:30:30;;;;;;;14.35;8.23;;;;;;;4.41;55.22;101633.95;1704788;83;25535;-78
2022/03/28 01:32:58;;;;;;;13.08;8.68;;;;;;;4.42;54.67;101634.39;1725076;82;20905;-78
2022/03/28 01:35:38;;;;;;;12.98;8.00;;;;;;;4.42;54.68;101632.70;1725652;83;20932;-78
2022/03/28 01:38:11;;;;;;;11.40;7.90;;;;;;;4.44;54.83;101627.20;1708233;82;20904;-78
2022/03/28 01:40:47;;;;;;;12.43;8.60;;;;;;;4.47;54.92;101627.70;1698054;84;20948;-78
2022/03/28 01:43:14;;;;;;;11.30;8.08;;;;;;;4.48;54.96;101618.77;1700046;83;20956;-78
2022/03/28 01:45:40;;;;;;;11.40;7.60;;;;;;;4.50;55.09;101622.23;1720920;82;21088;-78
2022/03/28 01:48:07;;;;;;;10.55;6.65;;;;;;;4.54;55.17;101614.22;1737221;82;21091;-78
2022/03/28 01:50:33;;;;;;;;;;;;;;;4.60;55.33;101619.49;1742101;82;20917;-78
2022/03/28 01:53:00;;;;;;;13.78;7.20;;;;;;;4.65;56.22;101606.38;1718571;82;20164;-78
2022/03/28 01:55:26;;;;;;;11.43;6.58;;;;;;;4.73;55.54;101600.13;1726870;82;20943;-77
2022/03/28 01:57:53;;;;;;;8.50;6.00;;;;;;;4.79;55.56;101592.17;1726893;82;21480;-77
2022/03/28 02:00:23;;;;;;;10.50;7.00;;;;;;;4.89;55.70;101599.24;1718943;82;20956;-78
2022/03/28 02:02:50;;;;;;;9.00;6.55;;;;;;;4.95;55.71;101589.13;1723618;83;20909;-78
2022/03/28 02:05:17;;;;;;;12.70;6.62;;;;;;;5.03;55.70;101592.28;1726902;82;20936;-77
2022/03/28 02:07:46;;;;;;;9.80;6.55;;;;;;;5.09;55.81;101599.69;1715254;82;20926;-77
2022/03/28 02:10:15;;;;;;;9.78;5.97;;;;;;;5.15;55.89;101596.40;1726586;82;20948;-78
2022/03/28 02:12:42;;;;;;;9.73;6.25;;;;;;;5.20;55.92;101595.63;1724457;82;20917;-78
2022/03/28 02:15:10;;;;;;;10.32;6.53;;;;;;;5.26;56.08;101594.90;1703894;83;20952;-78
2022/03/28 02:17:38;;;;;;;9.70;6.45;;;;;;;5.32;56.16;101590.77;1735337;82;20936;-77
2022/03/28 02:20:07;;;;;;;9.18;6.00;;;;;;;5.38;56.20;101597.73;1693000;83;21300;-77
2022/03/28 02:22:39;;;;;;;11.12;6.40;;;;;;;5.43;56.27;101587.56;1716473;83;21020;-77
2022/03/28 02:25:08;;;;;;;10.72;6.22;;;;;;;5.49;56.34;101585.98;1700343;83;20929;-77
2022/03/28 02:27:35;;;;;;;11.28;6.17;;;;;;;5.55;56.55;101588.68;1712997;83;20920;-77
2022/03/28 02:30:01;;;;;;;10.50;5.87;;;;;;;5.60;56.48;101585.79;1716051;83;21016;-78
2022/03/28 02:32:27;;;;;;;8.80;6.33;;;;;;;5.65;56.48;101581.61;1707766;83;21036;-78
2022/03/28 02:34:53;;;;;;;8.13;5.78;;;;;;;5.71;56.61;101577.44;1717013;83;21043;-78
2022/03/28 02:37:19;;;;;;;9.53;5.60;;;;;;;5.75;56.58;101577.91;1717295;83;20897;-78
2022/03/28 02:39:45;;;;;;;7.05;6.22;;;;;;;5.76;56.67;101566.39;1703395;83;21095;-78
2022/03/28 02:42:11;;;;;;;9.70;6.25;;;;;;;5.78;56.65;101563.44;1688214;83;21051;-78
2022/03/28 02:44:38;;;;;;;6.58;4.85;;;;;;;5.80;56.78;101563.05;1687950;84;21024;-78
2022/03/28 02:47:05;;;;;;;10.53;5.70;;;;;;;5.82;56.80;101554.09;1703439;83;21576;-78
2022/03/28 02:49:31;;;;;;;;;;;;;;;5.83;56.81;101555.83;1694286;83;21084;-78
2022/03/28 02:52:07;;;;;;;7.62;5.60;;;;;;;5.83;57.63;101560.54;1687923;84;20591;-78
2022/03/28 02:54:33;;;;;;;7.92;5.95;;;;;;;5.81;56.92;101554.52;1698025;83;22246;-78
2022/03/28 02:56:59;;;;;;;6.27;5.57;;;;;;;5.79;56.93;101556.61;1689154;83;20917;-78
2022/03/28 02:59:24;;;;;;;8.93;5.73;;;;;;;5.75;56.92;101551.83;1700906;83;21701;-77
2022/03/28 03:01:51;;;;;;;13.00;5.97;;;;;;;5.70;56.90;101544.91;1689934;83;20889;-77
2022/03/28 03:04:17;;;;;;;;;;;;;;;5.64;56.98;101544.38;1708592;83;21146;-76
2022/03/28 03:06:43;;;;;;;9.43;5.42;;;;;;;5.57;57.59;101541.25;1703714;83;20188;-78
2022/03/28 03:09:09;;;;;;;5.57;4.97;;;;;;;5.53;57.11;101544.59;1716850;83;21413;-78
2022/03/28 03:11:35;;;;;;;12.37;6.10;;;;;;;5.49;57.13;101541.09;1717061;83;20919;-78
2022/03/28 03:14:03;;;;;;;7.27;5.80;;;;;;;5.45;57.28;101547.00;1706357;83;20901;-78
2022/03/28 03:16:29;;;;;;;11.15;6.50;;;;;;;5.44;57.27;101540.56;1717036;83;20909;-78
2022/03/28 03:18:55;;;;;;;7.37;5.35;;;;;;;5.40;57.31;101543.48;1719254;82;21762;-78
2022/03/28 03:21:22;;;;;;;9.90;5.78;;;;;;;5.36;57.32;101543.39;1668177;84;20974;-78
2022/03/28 03:23:48;;;;;;;8.43;6.22;;;;;;;5.29;57.36;101543.27;1635460;86;20954;-78
2022/03/28 03:26:16;;;;;;;11.08;6.47;;;;;;;5.22;57.32;101540.54;1654730;85;20969;-78
2022/03/28 03:28:42;;;;;;;11.37;6.83;;;;;;;5.10;57.33;101537.75;1635601;86;20970;-78
2022/03/28 03:31:08;;;;;;;13.43;8.00;;;;;;;5.01;57.36;101536.27;1669444;85;20868;-78
2022/03/28 03:33:34;;;;;;;11.85;8.40;;;;;;;4.95;57.41;101539.16;1662408;85;20926;-78
2022/03/28 03:36:02;;;;;;;15.48;9.08;;;;;;;4.86;57.40;101535.52;1653353;86;20895;-78
2022/03/28 03:38:28;;;;;;;15.45;8.83;;;;;;;4.76;57.45;101524.62;1655599;84;20926;-78
2022/03/28 03:40:54;;;;;;;17.60;9.08;;;;;;;4.66;57.45;101524.86;1668949;84;20910;-78
2022/03/28 03:43:22;;;;;;;20.45;11.38;;;;;;;4.55;57.52;101522.47;1682203;85;20910;-78
2022/03/28 03:45:48;;;;;;;21.00;12.27;;;;;;;4.45;57.56;101523.95;1672080;84;20896;-77
2022/03/28 03:48:14;;;;;;;16.97;10.70;;;;;;;4.39;57.59;101527.64;1662065;86;20997;-77
2022/03/28 03:50:41;;;;;;;15.58;10.18;;;;;;;4.30;57.60;101533.82;1680208;85;21109;-78
2022/03/28 03:53:08;;;;;;;;;;;;;;;4.23;57.68;101528.09;1658108;86;21708;-78
2022/03/28 03:55:34;;;;;;;15.20;8.35;;;;;;;4.16;58.24;101521.96;1650480;86;20217;-78
2022/03/28 03:58:00;;;;;;;22.23;10.53;;;;;;;4.10;57.83;101522.26;1655032;85;20963;-78
2022/03/28 04:00:26;;;;;;;15.83;9.18;;;;;;;4.03;57.82;101517.40;1654416;85;21132;-78
2022/03/28 04:02:52;;;;;;;13.10;8.90;;;;;;;3.93;57.88;101513.74;1675183;83;20891;-77
2022/03/28 04:05:19;;;;;;;12.70;9.20;;;;;;;3.85;57.83;101507.56;1709274;83;21073;-78
2022/03/28 04:07:45;;;;;;;12.65;8.75;;;;;;;3.78;58.00;101513.34;1713076;83;21078;-78
2022/03/28 04:10:11;;;;;;;14.35;8.65;;;;;;;3.74;58.03;101511.53;1685280;83;21559;-78
2022/03/28 04:12:39;;;;;;;14.68;8.85;;;;;;;3.68;58.04;101510.09;1711742;83;28163;-76
2022/03/28 04:15:07;;;;;;;12.37;7.67;;;;;;;3.64;58.17;101507.00;1718699;83;20925;-75
2022/03/28 04:17:43;;;;;;;11.97;7.67;;;;;;;3.60;58.16;101504.81;1712209;83;21134;-79
2022/03/28 04:20:12;;;;;;;12.10;7.12;;;;;;;3.59;58.24;101506.05;1683063;84;25189;-78
2022/03/28 04:22:40;;;;;;;11.25;7.33;;;;;;;3.59;58.43;101508.19;1693598;84;21350;-76
2022/03/28 04:25:09;;;;;;;10.70;7.55;;;;;;;3.58;58.41;101506.45;1661164;85;20930;-76
2022/03/28 04:27:38;;;;;;;13.80;7.00;;;;;;;3.59;58.43;101506.91;1663859;85;20954;-76
2022/03/28 04:30:09;;;;;;;14.00;8.20;;;;;;;3.59;58.51;101506.05;1672835;84;20951;-77
2022/03/28 04:32:36;;;;;;;10.13;7.45;;;;;;;3.58;58.57;101503.91;1663668;86;20926;-77
2022/03/28 04:35:05;;;;;;;9.73;8.25;;;;;;;3.56;58.56;101504.27;1658557;86;20930;-76
2022/03/28 04:37:37;;;;;;;12.13;7.83;;;;;;;3.53;58.64;101499.08;1656210;85;20978;-76
2022/03/28 04:40:07;;;;;;;11.25;7.55;;;;;;;3.51;58.62;101500.72;1675145;84;20942;-78
2022/03/28 04:42:33;;;;;;;12.68;7.97;;;;;;;3.48;58.70;101501.92;1679764;85;20969;-77
2022/03/28 04:45:00;;;;;;;11.33;6.37;;;;;;;3.48;58.73;101501.05;1675977;84;20906;-77
2022/03/28 04:47:27;;;;;;;11.73;7.28;;;;;;;3.46;58.82;101499.73;1678133;84;20944;-77
2022/03/28 04:49:53;;;;;;;11.25;7.47;;;;;;;3.46;58.97;101501.02;1665860;84;20920;-77
2022/03/28 04:52:19;;;;;;;13.38;7.67;;;;;;;3.47;58.95;101504.44;1666664;84;20920;-76
2022/03/28 04:54:45;;;;;;;12.10;7.58;;;;;;;3.47;59.00;101500.59;1653967;84;20966;-79
2022/03/28 04:57:11;;;;;;;8.17;7.27;;;;;;;3.47;59.07;101500.19;1687882;83;20906;-79
2022/03/28 04:59:37;;;;;;;11.83;7.53;;;;;;;3.49;59.11;101506.20;1681456;83;22129;-78
2022/03/28 05:02:06;;;;;;;11.05;8.25;;;;;;;3.50;59.15;101501.96;1671522;83;20998;-78
2022/03/28 05:04:33;;;;;;;11.35;7.60;;;;;;;3.47;59.20;101502.74;1674909;83;21501;-78
2022/03/28 05:06:59;;;;;;;10.20;7.37;;;;;;;3.44;59.22;101505.63;1636277;85;21565;-77
2022/03/28 05:09:26;;;;;;;13.15;7.53;;;;;;;3.42;59.25;101504.31;1655243;85;21414;-78
2022/03/28 05:11:52;;;;;;;13.00;7.87;;;;;;;3.43;59.64;101491.11;1648871;85;20867;-78
2022/03/28 05:14:18;;;;;;;17.65;8.45;;;;;;;3.43;59.64;101491.11;1683330;84;20951;-78
2022/03/28 05:16:45;;;;;;;12.60;7.83;;;;;;;3.46;59.49;101493.75;1653990;84;20926;-78
2022/03/28 05:19:11;;;;;;;13.95;8.23;;;;;;;3.52;59.56;101497.75;1661744;85;21364;-78
2022/03/28 05:21:37;;;;;;;10.00;7.47;;;;;;;3.55;59.51;101492.72;1660364;85;20970;-78
2022/03/28 05:24:04;;;;;;;12.27;8.17;;;;;;;3.57;59.61;101495.77;1686023;83;21202;-78
2022/03/28 05:26:30;;;;;;;;;;;;;;;3.60;59.66;101491.16;1697681;82;21115;-78
2022/03/28 05:28:55;;;;;;;13.72;7.72;;;;;;;3.63;60.32;101488.27;1704816;82;20173;-78
2022/03/28 05:31:22;;;;;;;19.35;8.48;;;;;;;3.68;59.82;101487.08;1693709;82;21031;-78
2022/03/28 05:33:48;;;;;;;13.35;8.15;;;;;;;3.76;59.92;101484.30;1714673;82;21517;-78
2022/03/28 05:36:15;;;;;;;14.47;8.20;;;;;;;3.86;60.04;101486.69;1700086;82;20921;-78
2022/03/28 05:38:42;;;;;;;13.25;8.63;;;;;;;3.95;60.11;101486.50;1683027;83;21045;-78
2022/03/28 05:41:09;;;;;;;15.72;8.63;;;;;;;4.06;60.17;101478.22;1660531;86;20990;-78
2022/03/28 05:43:36;;;;;;;;;;;;;;;4.16;60.23;101475.89;1672762;84;21041;-78
2022/03/28 05:46:04;;;;;;;12.33;7.72;;;;;;;4.27;60.93;101467.19;1669586;84;20473;-78
2022/03/28 05:48:30;;;;;;;12.13;8.28;;;;;;;4.43;60.39;101470.55;1706211;82;20893;-78
2022/03/28 05:50:57;;;;;;;14.38;8.88;;;;;;;4.61;60.49;101466.26;1680162;83;20926;-78
2022/03/28 05:53:23;;;;;;;15.13;8.80;;;;;;;4.80;60.56;101465.79;1680331;84;20981;-78
2022/03/28 05:55:49;;;;;;;12.47;8.73;;;;;;;4.98;60.63;101457.63;1658684;85;20900;-78
2022/03/28 05:58:15;;;;;;;15.63;8.45;;;;;;;5.16;60.64;101456.70;1667909;84;21562;-78
2022/03/28 06:00:42;;;;;;;12.28;8.90;;;;;;;5.32;60.67;101459.98;1681675;84;20956;-78
2022/03/28 06:03:08;;;;;;;14.47;8.68;;;;;;;5.48;60.74;101456.01;1681016;84;20973;-78
2022/03/28 06:05:38;;;;;;;11.55;8.50;;;;;;;5.66;60.82;101459.32;1674348;84;21582;-78
2022/03/28 06:08:05;;;;;;;15.40;8.93;;;;;;;5.89;60.90;101458.44;1708854;82;21517;-78
2022/03/28 06:10:31;;;;;;;19.35;8.83;;;;;;;6.19;60.98;101456.36;1711133;82;21454;-78
2022/03/28 06:12:58;;;;;;;17.92;9.00;;;;;;;6.56;61.04;101451.73;1718707;82;21469;-78
2022/03/28 06:15:25;;;;;;;16.73;8.75;;;;;;;6.94;61.10;101449.64;1711326;82;20937;-78
2022/03/28 06:17:53;;;;;;;12.95;8.73;;;;;;;7.36;61.10;101447.09;1692089;83;21479;-78
2022/03/28 06:20:19;;;;;;;14.70;8.63;;;;;;;7.76;61.06;101444.06;1712681;82;21378;-78
2022/03/28 06:22:46;;;;;;;12.23;8.88;;;;;;;8.18;61.12;101442.22;1705141;82;21481;-79
2022/03/28 06:25:12;;;;;;;15.00;8.67;;;;;;;8.58;61.06;101443.34;1715733;82;21504;-79
2022/03/28 06:27:41;;;;;;;17.23;8.43;;;;;;;8.98;61.06;101449.09;1665800;84;21652;-79
2022/03/28 06:30:11;;;;;;;11.12;8.23;;;;;;;9.35;61.02;101447.06;1641598;85;21558;-79
2022/03/28 06:32:39;;;;;;;13.35;8.18;;;;;;;9.74;61.02;101438.92;1656857;85;20958;-79
2022/03/28 06:35:06;;;;;;;12.20;7.97;;;;;;;10.11;60.94;101434.16;1669551;85;20939;-78
2022/03/28 06:37:36;;;;;;;12.10;7.92;;;;;;;10.41;60.87;101425.49;1653414;86;21017;-77
2022/03/28 06:40:05;;;;;;;11.25;8.63;;;;;;;10.76;60.81;101420.65;1671543;83;21608;-77
2022/03/28 06:42:32;;;;;;;12.55;7.60;;;;;;;11.05;60.73;101417.47;1677204;84;21550;-77
2022/03/28 06:44:59;;;;;;;;;;;;;;;11.31;60.74;101415.18;1642141;86;20972;-77
2022/03/28 06:47:25;;;;;;;;;;;;;;;11.58;60.44;101411.94;1652962;85;20534;-78
2022/03/28 06:49:51;;;;;;;14.73;7.62;;;;;;;11.90;60.43;101410.86;1655832;85;20568;-78
2022/03/28 06:52:17;;;;;;;10.00;7.20;;;;;;;12.21;60.66;101406.23;1649536;85;20966;-78
2022/03/28 06:54:43;;;;;;;9.68;7.33;;;;;;;12.46;60.68;101397.31;1665530;84;21509;-77
2022/03/28 06:57:10;;;;;;;12.28;7.00;;;;;;;12.73;60.66;101396.55;1677108;84;27040;-77
2022/03/28 06:59:36;;;;;;;12.03;7.03;;;;;;;12.91;60.57;101389.83;1631619;86;20974;-77
2022/03/28 07:02:03;;;;;;;13.58;7.05;;;;;;;13.07;60.59;101391.74;1656515;85;21436;-77
2022/03/28 07:04:29;;;;;;;10.43;7.28;;;;;;;13.26;60.59;101397.13;1650017;85;25081;-77
2022/03/28 07:06:56;;;;;;;13.13;6.92;;;;;;;13.32;60.40;101389.69;1669264;84;20907;-77
2022/03/28 07:09:22;;;;;;;17.07;11.40;;;;;;;13.37;60.47;101388.75;1670951;84;21505;-77
2022/03/28 07:11:48;;;;;;;10.03;7.53;;;;;;;13.59;60.59;101391.40;1643629;86;21745;-77
2022/03/28 07:14:16;;;;;;;15.00;10.07;;;;;;;13.95;60.72;101381.72;1673006;84;21514;-77
2022/03/28 07:16:43;;;;;;;11.35;6.58;;;;;;;14.49;60.47;101380.70;1656530;84;20898;-77
2022/03/28 07:19:09;;;;;;;10.95;7.10;;;;;;;14.88;59.90;101377.69;1668175;84;20942;-77
2022/03/28 07:21:35;;;;;;;16.63;13.43;;;;;;;15.06;59.51;101377.73;1665336;84;20926;-77
2022/03/28 07:24:01;;;;;;;12.73;7.70;;;;;;;15.10;59.36;101376.74;1683228;84;21053;-77
2022/03/28 07:26:28;;;;;;;13.55;10.10;;;;;;;15.00;59.33;101382.22;1695286;84;21095;-77
2022/03/28 07:28:58;;;;;;;10.85;7.22;;;;;;;14.86;59.45;101374.70;1680283;83;26555;-77
2022/03/28 07:31:22;;;;;;;10.30;6.25;;;;;;;14.89;59.62;101378.10;1669668;84;21059;-77
2022/03/28 07:33:48;;;;;;;13.48;6.83;;;;;;;14.86;59.26;101372.95;1674504;84;21073;-77
2022/03/28 07:36:15;;;;;;;14.93;8.70;;;;;;;14.78;59.35;101368.80;1644590;85;21077;-77
2022/03/28 07:38:41;;;;;;;8.40;7.10;;;;;;;14.81;59.43;101370.04;1672888;84;20933;-77
2022/03/28 07:41:08;;;;;;;8.68;7.20;;;;;;;14.81;59.28;101364.83;1670919;83;20885;-77
2022/03/28 07:43:34;;;;;;;47.00;28.67;;;;;;;14.84;59.22;101361.72;1673363;84;22094;-77
2022/03/28 07:46:01;;;;;;;9.28;6.25;;;;;;;15.02;59.18;101351.79;1648264;86;20970;-77
2022/03/28 07:48:27;;;;;;;12.23;6.20;;;;;;;15.11;59.04;101356.31;1657706;84;20926;-77
2022/03/28 07:50:53;;;;;;;12.50;6.70;;;;;;;15.16;58.63;101354.46;1671308;83;20918;-77
2022/03/28 07:53:19;;;;;;;21.40;14.78;;;;;;;15.06;58.71;101345.63;1656540;84;20887;-77
2022/03/28 07:55:46;;;;;;;9.98;6.03;;;;;;;15.15;58.87;101348.84;1649171;85;21178;-77
2022/03/28 07:58:14;;;;;;;10.60;5.90;;;;;;;15.20;58.96;101344.38;1668612;84;21109;-77
2022/03/28 08:00:40;;;;;;;20.45;16.93;;;;;;;15.23;58.68;101337.80;1680869;83;21092;-77
2022/03/28 08:03:07;;;;;;;35.15;32.25;;;;;;;15.25;58.33;101332.55;1656173;84;21082;-77
2022/03/28 08:05:36;;;;;;;84.30;57.78;;;;;;;15.31;58.56;101328.49;1654270;85;20894;-77
2022/03/28 08:08:02;;;;;;;14.58;5.92;;;;;;;15.36;58.59;101327.94;1656987;85;20934;-77
2022/03/28 08:10:28;;;;;;;10.43;6.67;;;;;;;15.42;58.46;101326.48;1683251;84;20922;-77
2022/03/28 08:12:54;;;;;;;13.27;7.10;;;;;;;15.51;58.37;101322.80;1655379;85;20984;-77
2022/03/28 08:15:22;;;;;;;9.90;6.15;;;;;;;15.60;58.38;101321.27;1684883;83;20942;-77
2022/03/28 08:17:48;;;;;;;12.63;6.40;;;;;;;15.71;58.32;101326.20;1662818;84;20934;-77
2022/03/28 08:20:14;;;;;;;11.97;6.53;;;;;;;15.65;58.02;101315.48;1631129;86;21997;-77
2022/03/28 08:22:49;;;;;;;8.05;5.47;;;;;;;15.49;57.38;101312.86;1659708;85;20960;-77
2022/03/28 08:25:14;;;;;;;10.85;6.03;;;;;;;15.51;57.32;101308.46;1657148;86;20967;-77
2022/03/28 08:27:41;;;;;;;8.33;5.17;;;;;;;15.34;56.94;101304.97;1654435;84;21486;-78
2022/03/28 08:30:08;;;;;;;11.57;5.97;;;;;;;15.16;57.05;101306.71;1677282;84;20890;-78
2022/03/28 08:32:35;;;;;;;10.28;5.75;;;;;;;15.08;56.89;101302.98;1671731;84;20927;-78
2022/03/28 08:35:02;;;;;;;10.80;5.53;;;;;;;15.03;56.74;101298.36;1680622;83;20906;-78
2022/03/28 08:37:28;;;;;;;8.03;5.28;;;;;;;14.89;56.49;101295.22;1677028;84;20969;-78
2022/03/28 08:39:55;;;;;;;11.97;5.97;;;;;;;14.79;56.41;101294.56;1677312;84;20950;-77
2022/03/28 08:42:25;;;;;;;8.83;6.17;;;;;;;14.71;56.20;101286.52;1639595;86;20883;-77
2022/03/28 08:44:52;;;;;;;9.78;5.65;;;;;;;14.61;56.25;101284.56;1652757;86;21069;-77
2022/03/28 08:47:23;;;;;;;13.88;6.25;;;;;;;14.64;56.20;101284.48;1667621;84;21409;-77
2022/03/28 08:49:52;;;;;;;10.00;5.87;;;;;;;14.62;55.85;101278.46;1662842;84;21103;-77
2022/03/28 08:52:20;;;;;;;9.23;5.90;;;;;;;14.52;55.87;101285.64;1662919;86;21072;-77
2022/03/28 08:54:48;;;;;;;12.33;5.72;;;;;;;14.45;55.77;101287.97;1658428;84;21349;-77
2022/03/28 08:57:15;;;;;;;10.72;6.22;;;;;;;14.38;55.73;101277.23;1671248;84;20977;-77
2022/03/28 08:59:42;;;;;;;16.77;6.70;;;;;;;14.27;55.38;101276.61;1637854;86;21091;-77
2022/03/28 09:02:34;;;;;;;;;;;;;;;14.12;55.32;101271.27;1662458;85;20962;-77
2022/03/28 09:05:00;;;;;;;8.28;4.78;;;;;;;14.05;55.29;101268.38;1663281;86;20211;-77
2022/03/28 09:07:28;;;;;;;12.35;4.92;;;;;;;14.01;55.25;101264.16;1644278;85;21113;-77
2022/03/28 09:10:04;;;;;;;9.40;4.50;;;;;;;13.95;54.68;101259.52;1671506;84;21102;-77
2022/03/28 09:12:30;;;;;;;9.75;4.37;;;;;;;13.90;55.02;101264.36;1660946;86;21307;-76
2022/03/28 09:15:01;;;;;;;8.63;4.07;;;;;;;13.94;54.93;101257.36;1651066;85;20982;-77
2022/03/28 09:17:28;;;;;;;9.20;4.35;;;;;;;13.96;54.79;101256.03;1669059;84;20884;-77
2022/03/28 09:19:59;;;;;;;;;;;;;;;13.96;54.60;101246.92;1672013;84;20942;-77
2022/03/28 09:22:32;;;;;;;9.88;4.35;;;;;;;13.94;54.32;101244.80;1678664;84;20123;-77
2022/03/28 09:25:04;;;;;;;7.67;4.75;;;;;;;13.93;54.37;101246.98;1663358;85;21038;-77
2022/03/28 09:27:39;;;;;;;10.68;5.17;;;;;;;13.94;54.27;101242.20;1659742;84;20978;-77
2022/03/28 09:30:15;;;;;;;9.95;4.92;;;;;;;13.91;54.11;101240.52;1661464;86;20886;-76
2022/03/28 09:32:46;;;;;;;7.47;4.28;;;;;;;13.87;53.98;101241.46;1661742;84;20954;-76
2022/03/28 09:35:23;;;;;;;7.67;4.62;;;;;;;13.87;54.06;101234.52;1655389;84;20978;-76
2022/03/28 09:38:08;;;;;;;7.58;4.25;;;;;;;13.93;53.84;101227.48;1654416;85;20970;-76
2022/03/28 09:40:42;;;;;;;8.00;3.87;;;;;;;13.95;53.77;101217.91;1663057;84;20926;-76
2022/03/28 09:43:20;;;;;;;8.43;3.95;;;;;;;13.98;53.80;101219.16;1652404;84;21026;-76
2022/03/28 09:45:54;;;;;;;11.50;5.15;;;;;;;14.03;53.67;101216.87;1665184;85;20930;-76
2022/03/28 09:48:24;;;;;;;9.50;3.87;;;;;;;14.07;53.56;101217.19;1676920;84;20969;-76
2022/03/28 09:51:01;;;;;;;9.73;4.12;;;;;;;14.10;53.22;101206.72;1643145;85;20970;-76
2022/03/28 09:53:31;;;;;;;;;;;;;;;14.05;53.29;101207.27;1679973;84;20930;-75
2022/03/28 09:56:04;;;;;;;8.65;3.72;;;;;;;14.07;53.02;101192.48;1663209;85;20112;-75
2022/03/28 09:58:42;;;;;;;7.70;3.77;;;;;;;14.10;53.30;101190.27;1683137;84;20886;-76
2022/03/28 10:01:19;;;;;;;5.87;4.10;;;;;;;14.17;53.26;101181.44;1657183;86;20946;-77
2022/03/28 10:03:52;;;;;;;8.93;3.75;;;;;;;14.28;53.19;101179.91;1639147;85;20981;-76
2022/03/28 10:06:21;;;;;;;8.60;4.10;;;;;;;14.34;53.09;101175.42;1665673;84;20994;-76
2022/03/28 10:08:48;;;;;;;8.85;3.92;;;;;;;14.43;52.83;101171.34;1661959;85;21518;-76
2022/03/28 10:11:16;;;;;;;6.97;3.75;;;;;;;14.48;52.73;101168.20;1657790;86;20974;-76
2022/03/28 10:13:43;;;;;;;6.53;3.85;;;;;;;14.51;52.80;101161.62;1657953;84;21152;-76
2022/03/28 10:16:09;;;;;;;;;;;;;;;14.58;52.82;101159.70;1680314;85;21065;-76
2022/03/28 10:18:38;;;;;;;6.15;3.10;;;;;;;14.65;52.06;101154.75;1674393;84;20222;-76
2022/03/28 10:21:18;;;;;;;11.22;3.60;;;;;;;14.71;52.51;101152.45;1643974;85;20974;-76
2022/03/28 10:24:10;;;;;;;6.37;3.08;;;;;;;14.77;52.33;101153.60;1676112;83;20999;-76
2022/03/28 10:26:42;;;;;;;4.72;3.00;;;;;;;14.86;52.38;101141.66;1641255;85;21623;-76
2022/03/28 10:29:18;;;;;;;11.83;3.83;;;;;;;14.95;52.31;101133.62;1661688;85;20973;-76
2022/03/28 10:31:57;;;;;;;10.00;3.57;;;;;;;15.02;52.18;101134.31;1656609;85;20930;-76
2022/03/28 10:34:59;;;;;;;6.58;3.90;;;;;;;15.09;52.13;101139.30;1650021;85;20958;-76
2022/03/28 10:37:39;;;;;;;7.65;3.92;;;;;;;15.17;52.06;101133.44;1637041;85;20969;-76
2022/03/28 10:40:31;;;;;;;8.30;3.12;;;;;;;15.28;51.92;101146.63;1659729;85;20886;-76
2022/03/28 10:43:13;;;;;;;9.53;3.60;;;;;;;15.37;51.92;101133.34;1672455;85;20934;-76
2022/03/28 10:46:00;;;;;;;6.55;3.20;;;;;;;15.47;51.34;101133.05;1656006;85;20957;-76
2022/03/28 10:48:48;;;;;;;4.37;2.25;;;;;;;15.53;51.55;101119.85;1672993;84;20938;-76
2022/03/28 10:51:24;;;;;;;4.92;2.62;;;;;;;15.59;51.36;101113.64;1658136;85;20927;-76
2022/03/28 10:53:58;;;;;;;3.98;2.00;;;;;;;15.69;51.37;101106.38;1657860;85;21426;-76
2022/03/28 10:56:29;;;;;;;5.75;2.72;;;;;;;15.74;50.85;101097.98;1639873;86;20978;-76
2022/03/28 10:59:08;;;;;;;6.90;2.77;;;;;;;15.76;50.86;101093.12;1666767;85;20938;-76
2022/03/28 11:01:44;;;;;;;7.08;2.22;;;;;;;15.82;50.81;101085.56;1663956;84;20931;-76
2022/03/28 11:04:21;;;;;;;6.62;2.30;;;;;;;15.87;50.77;101085.83;1638161;86;21319;-76
2022/03/28 11:07:04;;;;;;;4.97;2.40;;;;;;;15.93;50.38;101080.87;1656620;86;21045;-76
2022/03/28 11:10:08;;;;;;;6.75;2.65;;;;;;;16.01;50.50;101065.84;1662752;85;21188;-76
2022/03/28 11:12:41;;;;;;;6.97;2.85;;;;;;;16.08;50.36;101066.06;1640080;84;21125;-76
2022/03/28 11:15:21;;;;;;;8.03;3.15;;;;;;;16.14;50.27;101061.92;1652950;85;21122;-76
2022/03/28 11:18:09;;;;;;;8.00;2.45;;;;;;;16.20;50.19;101055.66;1655042;84;20930;-76
2022/03/28 11:20:51;;;;;;;4.53;2.45;;;;;;;16.27;49.89;101055.86;1676088;84;21008;-76
2022/03/28 11:23:18;;;;;;;3.35;2.10;;;;;;;16.27;49.75;101041.51;1674420;85;20946;-76
2022/03/28 11:25:56;;;;;;;8.45;2.47;;;;;;;16.30;49.65;101044.02;1648966;85;21089;-76
2022/03/28 11:28:27;;;;;;;5.60;2.58;;;;;;;16.30;49.53;101043.16;1703531;82;21048;-76
2022/03/28 11:31:06;;;;;;;4.83;3.22;;;;;;;16.31;49.39;101031.38;1706941;82;21076;-76
2022/03/28 11:33:46;;;;;;;5.55;2.20;;;;;;;16.39;49.38;101027.20;1712288;82;21019;-77
2022/03/28 11:36:19;;;;;;;4.58;2.10;;;;;;;16.45;49.13;101032.22;1703576;83;21124;-77